sensor_id;sensor_type;location;lat;lon;timestamp;temperature;humidity
75994;DHT22;64680;53.800;9.988;2023-07-31T00:02:16;13.60;99.90
75994;DHT22;64680;53.800;9.988;2023-07-31T00:04:42;13.60;99.90
75994;DHT22;64680;53.800;9.988;2023-07-31T00:07:07;13.50;99.90
75994;DHT22;64680;53.800;9.988;2023-07-31T00:09:33;13.60;99.90
75994;DHT22;64680;53.800;9.988;2023-07-31T00:11:59;13.60;99.90
75994;DHT22;64680;53.800;9.988;2023-07-31T00:14:25;13.60;99.90
75994;DHT22;64680;53.800;9.988;2023-07-31T00:16:50;13.60;99.90
75994;DHT22;64680;53.800;9.988;2023-07-31T00:19:16;13.60;99.90
75994;DHT22;64680;53.800;9.988;2023-07-31T00:21:41;13.60;99.90
75994;DHT22;64680;53.800;9.988;2023-07-31T00:24:07;13.70;99.90
75994;DHT22;64680;53.800;9.988;2023-07-31T00:26:32;13.60;99.90
75994;DHT22;64680;53.800;9.988;2023-07-31T00:28:58;13.60;99.90
75994;DHT22;64680;53.800;9.988;2023-07-31T00:31:23;13.60;99.90
75994;DHT22;64680;53.800;9.988;2023-07-31T00:33:49;13.60;99.90
75994;DHT22;64680;53.800;9.988;2023-07-31T00:36:15;13.70;99.90
75994;DHT22;64680;53.800;9.988;2023-07-31T00:38:40;13.70;99.90
75994;DHT22;64680;53.800;9.988;2023-07-31T00:41:06;13.70;99.90
75994;DHT22;64680;53.800;9.988;2023-07-31T00:43:31;13.70;99.90
75994;DHT22;64680;53.800;9.988;2023-07-31T00:45:57;13.70;99.90
75994;DHT22;64680;53.800;9.988;2023-07-31T00:48:23;13.70;99.90
75994;DHT22;64680;53.800;9.988;2023-07-31T00:50:49;13.70;99.90
75994;DHT22;64680;53.800;9.988;2023-07-31T00:53:15;13.80;99.90
75994;DHT22;64680;53.800;9.988;2023-07-31T00:55:41;13.80;99.90
75994;DHT22;64680;53.800;9.988;2023-07-31T00:58:07;13.70;99.90
75994;DHT22;64680;53.800;9.988;2023-07-31T01:00:33;13.80;99.90
75994;DHT22;64680;53.800;9.988;2023-07-31T01:02:58;13.80;99.90
75994;DHT22;64680;53.800;9.988;2023-07-31T01:05:43;13.80;99.90
75994;DHT22;64680;53.800;9.988;2023-07-31T01:08:24;13.70;99.90
75994;DHT22;64680;53.800;9.988;2023-07-31T01:11:02;13.70;99.90
75994;DHT22;64680;53.800;9.988;2023-07-31T01:13:31;13.70;99.90
75994;DHT22;64680;53.800;9.988;2023-07-31T01:15:56;13.60;99.90
75994;DHT22;64680;53.800;9.988;2023-07-31T01:18:22;13.60;99.90
75994;DHT22;64680;53.800;9.988;2023-07-31T01:20:54;13.60;99.90
75994;DHT22;64680;53.800;9.988;2023-07-31T01:26:12;13.50;99.90
75994;DHT22;64680;53.800;9.988;2023-07-31T01:29:03;13.50;99.90
75994;DHT22;64680;53.800;9.988;2023-07-31T01:31:32;13.50;99.90
75994;DHT22;64680;53.800;9.988;2023-07-31T01:34:01;13.50;99.90
75994;DHT22;64680;53.800;9.988;2023-07-31T01:36:27;13.50;99.90
75994;DHT22;64680;53.800;9.988;2023-07-31T01:39:01;13.50;99.90
75994;DHT22;64680;53.800;9.988;2023-07-31T01:41:27;13.50;99.90
75994;DHT22;64680;53.800;9.988;2023-07-31T01:43:53;13.40;99.90
75994;DHT22;64680;53.800;9.988;2023-07-31T01:46:18;13.50;99.90
75994;DHT22;64680;53.800;9.988;2023-07-31T01:48:44;13.50;99.90
75994;DHT22;64680;53.800;9.988;2023-07-31T01:51:09;13.40;99.90
75994;DHT22;64680;53.800;9.988;2023-07-31T01:53:35;13.40;99.90
75994;DHT22;64680;53.800;9.988;2023-07-31T01:56:01;13.40;99.90
75994;DHT22;64680;53.800;9.988;2023-07-31T01:58:26;13.40;99.90
75994;DHT22;64680;53.800;9.988;2023-07-31T02:00:52;13.40;99.90
75994;DHT22;64680;53.800;9.988;2023-07-31T02:03:18;13.40;99.90
75994;DHT22;64680;53.800;9.988;2023-07-31T02:05:45;13.40;99.90
75994;DHT22;64680;53.800;9.988;2023-07-31T02:08:11;13.40;99.90
75994;DHT22;64680;53.800;9.988;2023-07-31T02:10:36;13.40;99.90
75994;DHT22;64680;53.800;9.988;2023-07-31T02:13:02;13.40;99.90
75994;DHT22;64680;53.800;9.988;2023-07-31T02:15:29;13.40;99.90
75994;DHT22;64680;53.800;9.988;2023-07-31T02:17:55;13.40;99.90
75994;DHT22;64680;53.800;9.988;2023-07-31T02:20:20;13.40;99.90
75994;DHT22;64680;53.800;9.988;2023-07-31T02:22:46;13.40;99.90
75994;DHT22;64680;53.800;9.988;2023-07-31T02:25:12;13.40;99.90
75994;DHT22;64680;53.800;9.988;2023-07-31T02:27:37;13.50;99.90
75994;DHT22;64680;53.800;9.988;2023-07-31T02:30:03;13.40;99.90
75994;DHT22;64680;53.800;9.988;2023-07-31T02:32:28;13.40;99.90
75994;DHT22;64680;53.800;9.988;2023-07-31T02:34:54;13.40;99.90
75994;DHT22;64680;53.800;9.988;2023-07-31T02:37:20;13.40;99.90
75994;DHT22;64680;53.800;9.988;2023-07-31T02:39:45;13.40;99.90
75994;DHT22;64680;53.800;9.988;2023-07-31T02:42:12;13.50;99.90
75994;DHT22;64680;53.800;9.988;2023-07-31T02:44:38;13.50;99.90
75994;DHT22;64680;53.800;9.988;2023-07-31T02:47:03;13.50;99.90
75994;DHT22;64680;53.800;9.988;2023-07-31T02:49:29;13.50;99.90
75994;DHT22;64680;53.800;9.988;2023-07-31T02:51:54;13.50;99.90
75994;DHT22;64680;53.800;9.988;2023-07-31T02:54:20;13.50;99.90
75994;DHT22;64680;53.800;9.988;2023-07-31T02:56:47;13.50;99.90
75994;DHT22;64680;53.800;9.988;2023-07-31T02:59:15;13.50;99.90
75994;DHT22;64680;53.800;9.988;2023-07-31T03:01:41;13.50;99.90
75994;DHT22;64680;53.800;9.988;2023-07-31T03:04:07;13.60;99.90
75994;DHT22;64680;53.800;9.988;2023-07-31T03:06:33;13.50;99.90
75994;DHT22;64680;53.800;9.988;2023-07-31T03:08:58;13.60;99.90
75994;DHT22;64680;53.800;9.988;2023-07-31T03:11:26;13.60;99.90
75994;DHT22;64680;53.800;9.988;2023-07-31T03:13:51;13.50;99.90
75994;DHT22;64680;53.800;9.988;2023-07-31T03:16:17;13.50;99.90
75994;DHT22;64680;53.800;9.988;2023-07-31T03:18:43;13.60;99.90
75994;DHT22;64680;53.800;9.988;2023-07-31T03:21:08;13.60;99.90
75994;DHT22;64680;53.800;9.988;2023-07-31T03:23:34;13.60;99.90
75994;DHT22;64680;53.800;9.988;2023-07-31T03:26:01;13.60;99.90
75994;DHT22;64680;53.800;9.988;2023-07-31T03:28:29;13.60;99.90
75994;DHT22;64680;53.800;9.988;2023-07-31T03:30:54;13.70;99.90
75994;DHT22;64680;53.800;9.988;2023-07-31T03:33:20;13.70;99.90
75994;DHT22;64680;53.800;9.988;2023-07-31T03:35:46;13.70;99.90
75994;DHT22;64680;53.800;9.988;2023-07-31T03:38:11;13.60;99.90
75994;DHT22;64680;53.800;9.988;2023-07-31T03:40:37;13.70;99.90
75994;DHT22;64680;53.800;9.988;2023-07-31T03:43:02;13.70;99.90
75994;DHT22;64680;53.800;9.988;2023-07-31T03:45:28;13.70;99.90
75994;DHT22;64680;53.800;9.988;2023-07-31T03:47:54;13.70;99.90
75994;DHT22;64680;53.800;9.988;2023-07-31T03:50:20;13.70;99.90
75994;DHT22;64680;53.800;9.988;2023-07-31T03:52:46;13.80;99.90
75994;DHT22;64680;53.800;9.988;2023-07-31T03:55:11;13.70;99.90
75994;DHT22;64680;53.800;9.988;2023-07-31T03:57:37;13.80;99.90
75994;DHT22;64680;53.800;9.988;2023-07-31T04:00:03;13.70;99.90
75994;DHT22;64680;53.800;9.988;2023-07-31T04:02:29;13.80;99.90
75994;DHT22;64680;53.800;9.988;2023-07-31T04:04:54;13.80;99.90
75994;DHT22;64680;53.800;9.988;2023-07-31T04:07:20;13.80;99.90
75994;DHT22;64680;53.800;9.988;2023-07-31T04:09:45;13.90;99.90
75994;DHT22;64680;53.800;9.988;2023-07-31T04:12:11;13.90;99.90
75994;DHT22;64680;53.800;9.988;2023-07-31T04:14:37;13.90;99.90
75994;DHT22;64680;53.800;9.988;2023-07-31T04:17:02;13.90;99.90
75994;DHT22;64680;53.800;9.988;2023-07-31T04:19:28;13.90;99.90
75994;DHT22;64680;53.800;9.988;2023-07-31T04:21:53;14.00;99.90
75994;DHT22;64680;53.800;9.988;2023-07-31T04:24:19;14.00;99.90
75994;DHT22;64680;53.800;9.988;2023-07-31T04:26:53;14.00;99.90
75994;DHT22;64680;53.800;9.988;2023-07-31T04:29:19;14.10;99.90
75994;DHT22;64680;53.800;9.988;2023-07-31T04:31:45;14.10;99.90
75994;DHT22;64680;53.800;9.988;2023-07-31T04:34:11;14.10;99.90
75994;DHT22;64680;53.800;9.988;2023-07-31T04:36:37;14.20;99.90
75994;DHT22;64680;53.800;9.988;2023-07-31T04:39:03;14.20;99.90
75994;DHT22;64680;53.800;9.988;2023-07-31T04:41:29;14.20;99.90
75994;DHT22;64680;53.800;9.988;2023-07-31T04:43:55;14.20;99.90
75994;DHT22;64680;53.800;9.988;2023-07-31T04:46:20;14.20;99.90
75994;DHT22;64680;53.800;9.988;2023-07-31T04:48:46;14.20;99.90
75994;DHT22;64680;53.800;9.988;2023-07-31T04:51:11;14.30;99.90
75994;DHT22;64680;53.800;9.988;2023-07-31T04:53:37;14.30;99.90
75994;DHT22;64680;53.800;9.988;2023-07-31T04:56:03;14.30;99.90
75994;DHT22;64680;53.800;9.988;2023-07-31T04:58:29;14.30;99.90
75994;DHT22;64680;53.800;9.988;2023-07-31T05:00:54;14.30;99.90
75994;DHT22;64680;53.800;9.988;2023-07-31T05:03:20;14.30;99.90
75994;DHT22;64680;53.800;9.988;2023-07-31T05:05:45;14.40;99.90
75994;DHT22;64680;53.800;9.988;2023-07-31T05:08:11;14.40;99.90
75994;DHT22;64680;53.800;9.988;2023-07-31T05:10:37;14.40;99.90
75994;DHT22;64680;53.800;9.988;2023-07-31T05:13:03;14.40;99.90
75994;DHT22;64680;53.800;9.988;2023-07-31T05:15:29;14.40;99.90
75994;DHT22;64680;53.800;9.988;2023-07-31T05:17:54;14.40;99.90
75994;DHT22;64680;53.800;9.988;2023-07-31T05:20:21;14.40;99.90
75994;DHT22;64680;53.800;9.988;2023-07-31T05:22:46;14.50;99.90
75994;DHT22;64680;53.800;9.988;2023-07-31T05:25:12;14.60;99.90
75994;DHT22;64680;53.800;9.988;2023-07-31T05:27:38;14.60;99.90
75994;DHT22;64680;53.800;9.988;2023-07-31T05:30:04;14.60;99.90
75994;DHT22;64680;53.800;9.988;2023-07-31T05:32:30;14.60;99.90
75994;DHT22;64680;53.800;9.988;2023-07-31T05:34:56;14.60;99.90
75994;DHT22;64680;53.800;9.988;2023-07-31T05:37:22;14.50;99.90
75994;DHT22;64680;53.800;9.988;2023-07-31T05:39:48;14.60;99.90
75994;DHT22;64680;53.800;9.988;2023-07-31T05:42:13;14.60;99.90
75994;DHT22;64680;53.800;9.988;2023-07-31T05:44:39;14.60;99.90
75994;DHT22;64680;53.800;9.988;2023-07-31T05:47:04;14.60;99.90
75994;DHT22;64680;53.800;9.988;2023-07-31T05:49:30;14.70;99.90
75994;DHT22;64680;53.800;9.988;2023-07-31T05:51:56;14.70;99.90
75994;DHT22;64680;53.800;9.988;2023-07-31T05:54:21;14.70;99.90
75994;DHT22;64680;53.800;9.988;2023-07-31T05:56:47;14.70;99.90
75994;DHT22;64680;53.800;9.988;2023-07-31T05:59:13;14.70;99.90
75994;DHT22;64680;53.800;9.988;2023-07-31T06:01:39;14.70;99.90
75994;DHT22;64680;53.800;9.988;2023-07-31T06:04:04;14.60;99.90
75994;DHT22;64680;53.800;9.988;2023-07-31T06:06:30;14.70;99.90
75994;DHT22;64680;53.800;9.988;2023-07-31T06:08:56;14.70;99.90
75994;DHT22;64680;53.800;9.988;2023-07-31T06:11:22;14.70;99.90
75994;DHT22;64680;53.800;9.988;2023-07-31T06:13:48;14.70;99.90
75994;DHT22;64680;53.800;9.988;2023-07-31T06:16:14;14.70;99.90
75994;DHT22;64680;53.800;9.988;2023-07-31T06:18:41;14.70;99.90
75994;DHT22;64680;53.800;9.988;2023-07-31T06:21:06;14.70;99.90
75994;DHT22;64680;53.800;9.988;2023-07-31T06:23:32;14.70;99.90
75994;DHT22;64680;53.800;9.988;2023-07-31T06:25:57;14.70;99.90
75994;DHT22;64680;53.800;9.988;2023-07-31T06:28:30;14.80;99.90
75994;DHT22;64680;53.800;9.988;2023-07-31T06:30:57;14.80;99.90
75994;DHT22;64680;53.800;9.988;2023-07-31T06:33:22;14.80;99.90
75994;DHT22;64680;53.800;9.988;2023-07-31T06:35:48;14.80;99.90
75994;DHT22;64680;53.800;9.988;2023-07-31T06:38:14;14.90;99.90
75994;DHT22;64680;53.800;9.988;2023-07-31T06:40:40;14.80;99.90
75994;DHT22;64680;53.800;9.988;2023-07-31T06:43:06;14.90;99.90
75994;DHT22;64680;53.800;9.988;2023-07-31T06:45:36;14.90;99.90
75994;DHT22;64680;53.800;9.988;2023-07-31T06:48:02;15.00;99.90
75994;DHT22;64680;53.800;9.988;2023-07-31T06:50:31;15.00;99.90
75994;DHT22;64680;53.800;9.988;2023-07-31T06:52:57;15.00;99.90
75994;DHT22;64680;53.800;9.988;2023-07-31T06:55:23;15.00;99.90
75994;DHT22;64680;53.800;9.988;2023-07-31T06:57:50;15.10;99.90
75994;DHT22;64680;53.800;9.988;2023-07-31T07:00:17;15.00;99.90
75994;DHT22;64680;53.800;9.988;2023-07-31T07:02:43;15.00;99.90
75994;DHT22;64680;53.800;9.988;2023-07-31T07:05:09;15.00;99.90
75994;DHT22;64680;53.800;9.988;2023-07-31T07:07:35;15.00;99.90
75994;DHT22;64680;53.800;9.988;2023-07-31T07:10:01;14.90;99.90
75994;DHT22;64680;53.800;9.988;2023-07-31T07:12:29;14.90;99.90
75994;DHT22;64680;53.800;9.988;2023-07-31T07:14:59;14.90;99.90
75994;DHT22;64680;53.800;9.988;2023-07-31T07:17:26;14.90;99.90
75994;DHT22;64680;53.800;9.988;2023-07-31T07:19:52;14.90;99.90
75994;DHT22;64680;53.800;9.988;2023-07-31T07:22:18;14.90;99.90
75994;DHT22;64680;53.800;9.988;2023-07-31T07:24:44;14.90;99.90
75994;DHT22;64680;53.800;9.988;2023-07-31T07:27:09;14.90;99.90
75994;DHT22;64680;53.800;9.988;2023-07-31T07:29:35;14.90;99.90
75994;DHT22;64680;53.800;9.988;2023-07-31T07:32:01;14.90;99.90
75994;DHT22;64680;53.800;9.988;2023-07-31T07:34:27;14.90;99.90
75994;DHT22;64680;53.800;9.988;2023-07-31T07:36:53;14.90;99.90
75994;DHT22;64680;53.800;9.988;2023-07-31T07:39:22;14.90;99.90
75994;DHT22;64680;53.800;9.988;2023-07-31T07:41:48;14.90;99.90
75994;DHT22;64680;53.800;9.988;2023-07-31T07:44:14;15.00;99.90
75994;DHT22;64680;53.800;9.988;2023-07-31T07:46:40;15.00;99.90
75994;DHT22;64680;53.800;9.988;2023-07-31T07:49:05;15.00;99.90
75994;DHT22;64680;53.800;9.988;2023-07-31T07:51:31;15.00;99.90
75994;DHT22;64680;53.800;9.988;2023-07-31T07:53:58;15.10;99.90
75994;DHT22;64680;53.800;9.988;2023-07-31T07:56:24;15.10;99.90
75994;DHT22;64680;53.800;9.988;2023-07-31T07:58:50;15.10;99.90
75994;DHT22;64680;53.800;9.988;2023-07-31T08:01:16;15.10;99.90
75994;DHT22;64680;53.800;9.988;2023-07-31T08:03:42;15.20;99.90
75994;DHT22;64680;53.800;9.988;2023-07-31T08:06:08;15.20;99.90
75994;DHT22;64680;53.800;9.988;2023-07-31T08:08:38;15.20;99.90
75994;DHT22;64680;53.800;9.988;2023-07-31T08:11:04;15.20;99.90
75994;DHT22;64680;53.800;9.988;2023-07-31T08:13:29;15.20;99.90
75994;DHT22;64680;53.800;9.988;2023-07-31T08:15:55;15.20;99.90
75994;DHT22;64680;53.800;9.988;2023-07-31T08:18:21;15.30;99.90
75994;DHT22;64680;53.800;9.988;2023-07-31T08:20:47;15.30;99.90
75994;DHT22;64680;53.800;9.988;2023-07-31T08:23:12;15.30;99.90
75994;DHT22;64680;53.800;9.988;2023-07-31T08:25:39;15.40;99.90
75994;DHT22;64680;53.800;9.988;2023-07-31T08:28:05;15.40;99.90
75994;DHT22;64680;53.800;9.988;2023-07-31T08:30:31;15.50;99.90
75994;DHT22;64680;53.800;9.988;2023-07-31T08:32:56;15.60;99.90
75994;DHT22;64680;53.800;9.988;2023-07-31T08:35:25;15.60;99.90
75994;DHT22;64680;53.800;9.988;2023-07-31T08:37:51;15.80;99.90
75994;DHT22;64680;53.800;9.988;2023-07-31T08:40:17;15.80;99.90
75994;DHT22;64680;53.800;9.988;2023-07-31T08:42:47;15.80;99.90
75994;DHT22;64680;53.800;9.988;2023-07-31T08:45:15;15.80;99.90
75994;DHT22;64680;53.800;9.988;2023-07-31T08:47:47;15.80;99.90
75994;DHT22;64680;53.800;9.988;2023-07-31T08:50:14;15.80;99.90
75994;DHT22;64680;53.800;9.988;2023-07-31T08:52:40;15.80;99.90
75994;DHT22;64680;53.800;9.988;2023-07-31T08:55:07;15.80;99.90
75994;DHT22;64680;53.800;9.988;2023-07-31T08:57:35;15.80;99.90
75994;DHT22;64680;53.800;9.988;2023-07-31T09:00:01;15.80;99.90
75994;DHT22;64680;53.800;9.988;2023-07-31T09:02:48;15.90;99.90
75994;DHT22;64680;53.800;9.988;2023-07-31T09:05:17;15.90;99.90
75994;DHT22;64680;53.800;9.988;2023-07-31T09:07:44;16.00;99.90
75994;DHT22;64680;53.800;9.988;2023-07-31T09:10:14;16.20;99.90
75994;DHT22;64680;53.800;9.988;2023-07-31T09:12:39;16.20;99.90
75994;DHT22;64680;53.800;9.988;2023-07-31T09:15:06;16.20;99.90
75994;DHT22;64680;53.800;9.988;2023-07-31T09:17:33;16.10;99.90
75994;DHT22;64680;53.800;9.988;2023-07-31T09:20:21;16.10;99.90
75994;DHT22;64680;53.800;9.988;2023-07-31T09:22:48;16.10;99.90
75994;DHT22;64680;53.800;9.988;2023-07-31T09:25:18;16.10;99.90
75994;DHT22;64680;53.800;9.988;2023-07-31T09:27:58;16.10;99.90
75994;DHT22;64680;53.800;9.988;2023-07-31T09:30:24;16.20;99.90
75994;DHT22;64680;53.800;9.988;2023-07-31T09:32:52;16.20;99.90
75994;DHT22;64680;53.800;9.988;2023-07-31T09:35:31;16.20;99.90
75994;DHT22;64680;53.800;9.988;2023-07-31T09:38:10;16.30;99.90
75994;DHT22;64680;53.800;9.988;2023-07-31T09:40:42;16.30;99.90
75994;DHT22;64680;53.800;9.988;2023-07-31T09:43:10;16.30;98.20
75994;DHT22;64680;53.800;9.988;2023-07-31T09:45:41;16.20;98.50
75994;DHT22;64680;53.800;9.988;2023-07-31T09:48:09;16.20;99.80
75994;DHT22;64680;53.800;9.988;2023-07-31T09:50:37;16.20;98.80
75994;DHT22;64680;53.800;9.988;2023-07-31T09:53:04;16.20;99.90
75994;DHT22;64680;53.800;9.988;2023-07-31T09:55:29;16.20;99.90
75994;DHT22;64680;53.800;9.988;2023-07-31T09:57:57;16.30;99.90
75994;DHT22;64680;53.800;9.988;2023-07-31T10:00:24;16.40;98.40
75994;DHT22;64680;53.800;9.988;2023-07-31T10:02:54;16.40;94.60
75994;DHT22;64680;53.800;9.988;2023-07-31T10:05:24;16.30;94.90
75994;DHT22;64680;53.800;9.988;2023-07-31T10:07:55;16.20;97.70
75994;DHT22;64680;53.800;9.988;2023-07-31T10:10:23;16.20;99.10
75994;DHT22;64680;53.800;9.988;2023-07-31T10:12:49;16.20;99.90
75994;DHT22;64680;53.800;9.988;2023-07-31T10:15:16;16.20;99.90
75994;DHT22;64680;53.800;9.988;2023-07-31T10:17:41;16.30;99.90
75994;DHT22;64680;53.800;9.988;2023-07-31T10:20:08;16.30;99.90
75994;DHT22;64680;53.800;9.988;2023-07-31T10:22:35;16.40;99.90
75994;DHT22;64680;53.800;9.988;2023-07-31T10:25:01;16.40;99.90
75994;DHT22;64680;53.800;9.988;2023-07-31T10:27:27;16.40;99.90
75994;DHT22;64680;53.800;9.988;2023-07-31T10:29:57;16.30;99.90
75994;DHT22;64680;53.800;9.988;2023-07-31T10:32:24;16.30;99.90
75994;DHT22;64680;53.800;9.988;2023-07-31T10:34:51;16.30;99.90
75994;DHT22;64680;53.800;9.988;2023-07-31T10:37:21;16.30;99.90
75994;DHT22;64680;53.800;9.988;2023-07-31T10:40:06;16.20;99.50
75994;DHT22;64680;53.800;9.988;2023-07-31T10:42:37;16.10;99.90
75994;DHT22;64680;53.800;9.988;2023-07-31T10:45:11;15.90;99.90
75994;DHT22;64680;53.800;9.988;2023-07-31T10:47:38;15.90;99.90
75994;DHT22;64680;53.800;9.988;2023-07-31T10:50:21;16.00;99.90
75994;DHT22;64680;53.800;9.988;2023-07-31T10:52:56;15.90;99.90
75994;DHT22;64680;53.800;9.988;2023-07-31T10:55:38;15.90;99.90
75994;DHT22;64680;53.800;9.988;2023-07-31T10:58:10;15.80;99.90
75994;DHT22;64680;53.800;9.988;2023-07-31T11:00:44;15.70;99.90
75994;DHT22;64680;53.800;9.988;2023-07-31T11:03:10;15.70;99.90
75994;DHT22;64680;53.800;9.988;2023-07-31T11:06:00;15.80;99.90
75994;DHT22;64680;53.800;9.988;2023-07-31T11:08:31;15.80;99.90
75994;DHT22;64680;53.800;9.988;2023-07-31T11:13:48;16.00;99.90
75994;DHT22;64680;53.800;9.988;2023-07-31T11:16:19;16.00;99.90
75994;DHT22;64680;53.800;9.988;2023-07-31T11:18:46;15.90;99.90
75994;DHT22;64680;53.800;9.988;2023-07-31T11:23:40;15.90;99.90
75994;DHT22;64680;53.800;9.988;2023-07-31T11:26:07;15.80;99.90
75994;DHT22;64680;53.800;9.988;2023-07-31T11:28:34;15.90;99.90
75994;DHT22;64680;53.800;9.988;2023-07-31T11:31:00;15.80;99.90
75994;DHT22;64680;53.800;9.988;2023-07-31T11:33:26;15.80;99.90
75994;DHT22;64680;53.800;9.988;2023-07-31T11:35:52;15.70;99.90
75994;DHT22;64680;53.800;9.988;2023-07-31T11:38:28;15.70;99.90
75994;DHT22;64680;53.800;9.988;2023-07-31T11:40:56;15.70;99.90
75994;DHT22;64680;53.800;9.988;2023-07-31T11:43:22;15.70;99.90
75994;DHT22;64680;53.800;9.988;2023-07-31T11:45:53;15.60;99.90
75994;DHT22;64680;53.800;9.988;2023-07-31T11:48:27;15.60;98.40
75994;DHT22;64680;53.800;9.988;2023-07-31T11:50:58;15.40;99.90
75994;DHT22;64680;53.800;9.988;2023-07-31T11:56:09;15.40;99.90
75994;DHT22;64680;53.800;9.988;2023-07-31T11:58:37;15.40;99.90
75994;DHT22;64680;53.800;9.988;2023-07-31T12:01:04;15.40;99.90
75994;DHT22;64680;53.800;9.988;2023-07-31T12:03:30;15.40;99.90
75994;DHT22;64680;53.800;9.988;2023-07-31T12:05:56;15.50;99.90
75994;DHT22;64680;53.800;9.988;2023-07-31T12:08:24;15.50;99.90
75994;DHT22;64680;53.800;9.988;2023-07-31T12:10:54;15.50;99.90
75994;DHT22;64680;53.800;9.988;2023-07-31T12:13:24;15.40;99.90
75994;DHT22;64680;53.800;9.988;2023-07-31T12:15:58;15.50;99.90
75994;DHT22;64680;53.800;9.988;2023-07-31T12:18:26;15.50;99.90
75994;DHT22;64680;53.800;9.988;2023-07-31T12:20:59;15.50;99.90
75994;DHT22;64680;53.800;9.988;2023-07-31T12:23:29;15.50;99.90
75994;DHT22;64680;53.800;9.988;2023-07-31T12:28:32;15.50;99.90
75994;DHT22;64680;53.800;9.988;2023-07-31T12:31:00;15.50;99.90
75994;DHT22;64680;53.800;9.988;2023-07-31T12:33:35;15.60;99.90
75994;DHT22;64680;53.800;9.988;2023-07-31T12:36:03;15.60;99.90
75994;DHT22;64680;53.800;9.988;2023-07-31T12:38:29;15.60;99.90
75994;DHT22;64680;53.800;9.988;2023-07-31T12:40:55;15.80;99.90
75994;DHT22;64680;53.800;9.988;2023-07-31T12:43:21;15.80;99.90
75994;DHT22;64680;53.800;9.988;2023-07-31T12:45:46;15.80;99.90
75994;DHT22;64680;53.800;9.988;2023-07-31T12:48:13;15.80;99.90
75994;DHT22;64680;53.800;9.988;2023-07-31T12:50:38;15.70;99.90
75994;DHT22;64680;53.800;9.988;2023-07-31T12:53:04;15.60;99.90
75994;DHT22;64680;53.800;9.988;2023-07-31T12:55:31;15.60;99.90
75994;DHT22;64680;53.800;9.988;2023-07-31T12:57:58;15.50;99.90
75994;DHT22;64680;53.800;9.988;2023-07-31T13:00:23;15.60;99.90
75994;DHT22;64680;53.800;9.988;2023-07-31T13:02:49;15.50;99.90
75994;DHT22;64680;53.800;9.988;2023-07-31T13:05:15;15.60;99.90
75994;DHT22;64680;53.800;9.988;2023-07-31T13:07:40;15.60;99.90
75994;DHT22;64680;53.800;9.988;2023-07-31T13:10:07;15.60;99.90
75994;DHT22;64680;53.800;9.988;2023-07-31T13:12:33;15.60;99.90
75994;DHT22;64680;53.800;9.988;2023-07-31T13:14:58;15.70;99.90
75994;DHT22;64680;53.800;9.988;2023-07-31T13:17:24;15.80;99.90
75994;DHT22;64680;53.800;9.988;2023-07-31T13:19:50;16.00;99.90
75994;DHT22;64680;53.800;9.988;2023-07-31T13:22:15;16.00;99.90
75994;DHT22;64680;53.800;9.988;2023-07-31T13:24:41;16.10;99.90
75994;DHT22;64680;53.800;9.988;2023-07-31T13:27:07;16.20;99.90
75994;DHT22;64680;53.800;9.988;2023-07-31T13:29:32;16.20;99.90
75994;DHT22;64680;53.800;9.988;2023-07-31T13:31:58;16.10;99.90
75994;DHT22;64680;53.800;9.988;2023-07-31T13:34:24;16.10;99.90
75994;DHT22;64680;53.800;9.988;2023-07-31T13:36:49;16.00;99.90
75994;DHT22;64680;53.800;9.988;2023-07-31T13:39:15;16.00;99.90
75994;DHT22;64680;53.800;9.988;2023-07-31T13:41:40;15.90;99.90
75994;DHT22;64680;53.800;9.988;2023-07-31T13:44:06;15.90;99.90
75994;DHT22;64680;53.800;9.988;2023-07-31T13:46:32;15.80;99.90
75994;DHT22;64680;53.800;9.988;2023-07-31T13:48:59;15.70;99.90
75994;DHT22;64680;53.800;9.988;2023-07-31T13:51:25;15.60;99.90
75994;DHT22;64680;53.800;9.988;2023-07-31T13:53:51;15.60;99.90
75994;DHT22;64680;53.800;9.988;2023-07-31T13:56:16;15.70;99.90
75994;DHT22;64680;53.800;9.988;2023-07-31T13:58:42;15.70;99.90
75994;DHT22;64680;53.800;9.988;2023-07-31T14:01:08;15.80;99.90
75994;DHT22;64680;53.800;9.988;2023-07-31T14:03:34;15.80;99.90
75994;DHT22;64680;53.800;9.988;2023-07-31T14:05:59;15.70;99.90
75994;DHT22;64680;53.800;9.988;2023-07-31T14:08:25;15.80;99.90
75994;DHT22;64680;53.800;9.988;2023-07-31T14:10:51;15.80;99.90
75994;DHT22;64680;53.800;9.988;2023-07-31T14:13:17;15.70;99.90
75994;DHT22;64680;53.800;9.988;2023-07-31T14:15:43;15.70;99.90
75994;DHT22;64680;53.800;9.988;2023-07-31T14:18:09;15.70;99.90
75994;DHT22;64680;53.800;9.988;2023-07-31T14:20:34;15.50;99.90
75994;DHT22;64680;53.800;9.988;2023-07-31T14:23:00;15.50;99.90
75994;DHT22;64680;53.800;9.988;2023-07-31T14:25:26;15.50;99.90
75994;DHT22;64680;53.800;9.988;2023-07-31T14:27:52;15.40;99.90
75994;DHT22;64680;53.800;9.988;2023-07-31T14:30:17;15.30;99.90
75994;DHT22;64680;53.800;9.988;2023-07-31T14:32:44;15.30;99.90
75994;DHT22;64680;53.800;9.988;2023-07-31T14:35:09;15.30;99.90
75994;DHT22;64680;53.800;9.988;2023-07-31T14:37:44;15.30;99.90
75994;DHT22;64680;53.800;9.988;2023-07-31T14:40:11;15.30;99.90
75994;DHT22;64680;53.800;9.988;2023-07-31T14:42:38;15.30;99.90
75994;DHT22;64680;53.800;9.988;2023-07-31T14:45:07;15.30;99.90
75994;DHT22;64680;53.800;9.988;2023-07-31T14:47:33;15.30;99.90
75994;DHT22;64680;53.800;9.988;2023-07-31T14:50:01;15.30;99.90
75994;DHT22;64680;53.800;9.988;2023-07-31T14:52:27;15.30;99.90
75994;DHT22;64680;53.800;9.988;2023-07-31T14:54:53;15.30;99.90
75994;DHT22;64680;53.800;9.988;2023-07-31T14:57:19;15.40;99.90
75994;DHT22;64680;53.800;9.988;2023-07-31T14:59:45;15.30;99.90
75994;DHT22;64680;53.800;9.988;2023-07-31T15:02:11;15.30;99.90
75994;DHT22;64680;53.800;9.988;2023-07-31T15:04:37;15.40;99.90
75994;DHT22;64680;53.800;9.988;2023-07-31T15:07:03;15.40;99.90
75994;DHT22;64680;53.800;9.988;2023-07-31T15:09:29;15.40;99.90
75994;DHT22;64680;53.800;9.988;2023-07-31T15:11:56;15.30;99.90
75994;DHT22;64680;53.800;9.988;2023-07-31T15:14:22;15.30;99.90
75994;DHT22;64680;53.800;9.988;2023-07-31T15:16:47;15.30;99.90
75994;DHT22;64680;53.800;9.988;2023-07-31T15:19:14;15.40;99.90
75994;DHT22;64680;53.800;9.988;2023-07-31T15:21:40;15.40;99.90
75994;DHT22;64680;53.800;9.988;2023-07-31T15:24:08;15.50;99.90
75994;DHT22;64680;53.800;9.988;2023-07-31T15:26:34;15.60;99.90
75994;DHT22;64680;53.800;9.988;2023-07-31T15:29:04;15.60;99.90
75994;DHT22;64680;53.800;9.988;2023-07-31T15:31:40;15.60;99.90
75994;DHT22;64680;53.800;9.988;2023-07-31T15:34:06;15.60;99.90
75994;DHT22;64680;53.800;9.988;2023-07-31T15:36:32;15.70;99.90
75994;DHT22;64680;53.800;9.988;2023-07-31T15:38:58;15.70;99.90
75994;DHT22;64680;53.800;9.988;2023-07-31T15:41:23;15.80;99.90
75994;DHT22;64680;53.800;9.988;2023-07-31T15:43:51;15.70;99.90